createdAt,value
2022-12-03T00:01:20.521Z,74.07
2022-12-03T00:03:48.922Z,74.52
2022-12-03T00:06:18.869Z,74.45
2022-12-03T00:08:47.205Z,74.26
2022-12-03T00:11:15.397Z,74.27
2022-12-03T00:13:43.667Z,74.60
2022-12-03T00:16:11.994Z,74.71
2022-12-03T00:18:40.329Z,75.01
2022-12-03T00:21:08.585Z,74.87
2022-12-03T00:23:42.091Z,75.27
2022-12-03T00:26:10.845Z,75.14
2022-12-03T00:28:39.156Z,74.81
2022-12-03T00:31:07.543Z,74.77
2022-12-03T00:33:35.826Z,74.17
2022-12-03T00:36:04.100Z,74.03
2022-12-03T00:38:32.413Z,74.27
2022-12-03T00:41:02.056Z,74.25
2022-12-03T00:43:30.634Z,74.23
2022-12-03T00:45:58.930Z,74.22
2022-12-03T00:48:27.304Z,74.36
2022-12-03T00:50:55.536Z,74.45
2022-12-03T00:53:23.706Z,74.55
2022-12-03T00:55:51.996Z,74.48
2022-12-03T00:58:21.577Z,74.33
2022-12-03T01:00:49.847Z,74.42
2022-12-03T01:03:18.130Z,74.82
2022-12-03T01:05:46.370Z,74.79
2022-12-03T01:08:14.672Z,74.67
2022-12-03T01:10:42.981Z,74.58
2022-12-03T01:13:11.373Z,74.75
2022-12-03T01:15:41.011Z,74.88
2022-12-03T01:18:09.287Z,74.95
2022-12-03T01:20:38.588Z,74.89
2022-12-03T01:23:07.172Z,74.78
2022-12-03T01:25:35.463Z,74.95
2022-12-03T01:28:03.721Z,75.14
2022-12-03T01:30:52.098Z,75.70
2022-12-03T01:33:20.770Z,75.18
2022-12-03T01:35:49.002Z,75.63
2022-12-03T01:38:17.254Z,75.40
2022-12-03T01:40:46.080Z,75.60
2022-12-03T01:43:14.342Z,75.32
2022-12-03T01:45:42.580Z,75.77
2022-12-03T01:48:13.651Z,75.58
2022-12-03T01:50:43.967Z,75.39
2022-12-03T01:53:18.206Z,75.62
2022-12-03T01:55:48.896Z,75.27
2022-12-03T01:58:18.299Z,75.34
2022-12-03T02:00:46.513Z,75.34
2022-12-03T02:03:22.426Z,74.99
2022-12-03T02:05:52.134Z,74.88
2022-12-03T02:08:30.318Z,75.13
2022-12-03T02:11:00.285Z,75.03
2022-12-03T02:13:28.586Z,75.18
2022-12-03T02:15:57.919Z,75.72
2022-12-03T02:18:26.320Z,75.73
2022-12-03T02:21:06.546Z,75.60
2022-12-03T02:23:41.039Z,75.87
2022-12-03T02:26:10.873Z,75.86
2022-12-03T02:28:39.332Z,75.74
2022-12-03T02:31:08.190Z,76.27
2022-12-03T02:33:36.617Z,75.98
2022-12-03T02:36:05.974Z,75.83
2022-12-03T02:38:35.835Z,75.91
2022-12-03T02:41:09.062Z,76.12
2022-12-03T02:43:38.198Z,76.10
2022-12-03T02:46:09.007Z,76.46
2022-12-03T02:48:39.961Z,76.53
2022-12-03T02:51:11.732Z,76.63
2022-12-03T02:53:44.500Z,76.43
2022-12-03T02:56:16.395Z,76.62
2022-12-03T02:58:48.537Z,76.84
2022-12-03T03:01:17.293Z,76.44
2022-12-03T03:03:47.199Z,76.35
2022-12-03T03:06:16.804Z,76.88
2022-12-03T03:08:46.802Z,77.14
2022-12-03T03:11:15.084Z,76.83
2022-12-03T03:13:45.148Z,76.89
2022-12-03T03:16:13.483Z,77.20
2022-12-03T03:18:41.834Z,77.13
2022-12-03T03:21:10.381Z,77.00
2022-12-03T03:23:38.618Z,77.18
2022-12-03T03:26:09.896Z,77.48
2022-12-03T03:28:41.069Z,77.34
2022-12-03T03:31:13.284Z,77.11
2022-12-03T03:33:43.322Z,77.38
2022-12-03T03:36:12.161Z,77.42
2022-12-03T03:38:42.442Z,77.12
2022-12-03T03:41:14.374Z,77.15
2022-12-03T03:43:45.142Z,77.32
2022-12-03T03:46:15.807Z,77.20
2022-12-03T03:48:44.886Z,77.11
2022-12-03T03:51:14.312Z,76.78
2022-12-03T03:53:45.392Z,77.15
2022-12-03T03:56:14.129Z,77.17
2022-12-03T03:58:42.353Z,77.15
2022-12-03T04:01:12.749Z,77.45
2022-12-03T04:03:42.879Z,77.33
2022-12-03T04:06:12.064Z,77.37
2022-12-03T04:08:40.275Z,77.93
2022-12-03T04:11:25.850Z,77.78
2022-12-03T04:13:54.098Z,77.58
2022-12-03T04:16:22.368Z,77.51
2022-12-03T04:18:52.116Z,77.20
2022-12-03T04:21:46.125Z,77.46
2022-12-03T04:24:14.376Z,77.28
2022-12-03T04:27:05.481Z,77.50
2022-12-03T04:29:33.790Z,77.72
2022-12-03T04:32:21.225Z,77.55
2022-12-03T04:35:08.393Z,77.36
2022-12-03T04:37:36.737Z,77.67
2022-12-03T04:40:26.589Z,78.05
2022-12-03T04:42:54.857Z,78.39
2022-12-03T04:45:23.077Z,78.50
2022-12-03T04:47:51.310Z,78.36
2022-12-03T04:50:20.872Z,78.77
2022-12-03T04:52:49.155Z,78.29
2022-12-03T04:55:17.513Z,78.69
2022-12-03T04:57:45.787Z,78.67
2022-12-03T05:00:15.961Z,79.20
2022-12-03T05:02:44.376Z,79.89
2022-12-03T05:05:12.658Z,79.73
2022-12-03T05:07:42.703Z,79.99
2022-12-03T05:10:12.779Z,80.48
2022-12-03T05:12:41.032Z,81.10
2022-12-03T05:15:10.125Z,81.16
2022-12-03T05:17:38.398Z,80.88
2022-12-03T05:20:26.075Z,80.92
2022-12-03T05:22:55.677Z,82.21
2022-12-03T05:25:23.914Z,82.13
2022-12-03T05:27:52.157Z,81.29
2022-12-03T05:30:20.504Z,81.36
2022-12-03T05:32:48.953Z,81.35
2022-12-03T05:35:17.430Z,81.21
2022-12-03T05:37:45.682Z,80.78
2022-12-03T05:40:16.343Z,81.71
2022-12-03T05:43:01.289Z,81.57
2022-12-03T05:45:32.118Z,81.27
2022-12-03T05:48:01.531Z,80.90
2022-12-03T05:50:33.141Z,81.09
2022-12-03T05:53:17.320Z,80.62
2022-12-03T05:55:46.983Z,81.09
2022-12-03T05:58:15.187Z,80.63
2022-12-03T06:00:43.417Z,80.17
2022-12-03T06:03:12.065Z,79.69
2022-12-03T06:05:40.413Z,79.18
2022-12-03T06:08:08.666Z,79.52
2022-12-03T06:10:37.529Z,78.85
2022-12-03T06:13:07.159Z,79.08
2022-12-03T06:15:38.915Z,78.94
2022-12-03T06:18:11.663Z,79.53
2022-12-03T06:20:40.029Z,79.83
2022-12-03T06:23:08.264Z,79.46
2022-12-03T06:25:36.517Z,80.01
2022-12-03T06:28:07.330Z,80.07
2022-12-03T06:30:35.929Z,80.10
2022-12-03T06:33:04.210Z,80.57
2022-12-03T06:35:33.053Z,79.82
2022-12-03T06:38:01.261Z,80.61
2022-12-03T06:40:29.620Z,79.81
2022-12-03T06:42:57.837Z,79.76
2022-12-03T06:45:27.408Z,80.15
2022-12-03T06:47:55.609Z,80.82
2022-12-03T06:50:23.836Z,80.32
2022-12-03T06:52:52.081Z,80.83
2022-12-03T06:55:20.253Z,81.42
2022-12-03T06:57:48.478Z,81.14
2022-12-03T07:00:17.404Z,81.02
2022-12-03T07:02:47.090Z,80.73
2022-12-03T07:05:15.471Z,79.98
2022-12-03T07:07:43.689Z,79.55
2022-12-03T07:10:14.802Z,78.79
2022-12-03T07:12:43.135Z,78.67
2022-12-03T07:15:12.060Z,78.73
2022-12-03T07:17:40.438Z,78.66
2022-12-03T07:20:11.613Z,78.72
2022-12-03T07:22:40.177Z,78.94
2022-12-03T07:25:09.631Z,78.90
2022-12-03T07:27:37.863Z,79.19
2022-12-03T07:30:08.097Z,79.00
2022-12-03T07:32:36.394Z,78.62
2022-12-03T07:35:07.317Z,79.33
2022-12-03T07:37:37.012Z,79.28
2022-12-03T07:40:07.012Z,78.82
2022-12-03T07:42:35.283Z,80.27
2022-12-03T07:45:03.667Z,80.51
2022-12-03T07:47:32.032Z,80.68
2022-12-03T07:50:00.241Z,81.23
2022-12-03T07:52:28.554Z,82.00
2022-12-03T07:54:58.125Z,82.68
2022-12-03T07:57:26.374Z,82.72
2022-12-03T07:59:54.569Z,82.47
2022-12-03T08:02:22.869Z,81.65
2022-12-03T08:04:51.347Z,82.59
2022-12-03T08:07:19.721Z,83.12
2022-12-03T08:09:47.962Z,83.59
2022-12-03T08:12:39.946Z,83.28
2022-12-03T08:15:14.919Z,84.39
2022-12-03T08:17:44.361Z,83.36
2022-12-03T08:20:16.845Z,82.79
2022-12-03T08:22:47.499Z,82.00
2022-12-03T08:25:22.531Z,81.78
2022-12-03T08:27:56.021Z,82.27
2022-12-03T08:30:24.931Z,81.44
2022-12-03T08:32:53.497Z,80.45
2022-12-03T08:35:26.184Z,80.33
2022-12-03T08:38:03.053Z,80.28
2022-12-03T08:40:37.609Z,80.82
2022-12-03T08:43:16.084Z,79.94
2022-12-03T08:45:44.377Z,79.90
2022-12-03T08:48:34.457Z,80.08
2022-12-03T08:51:10.516Z,79.95
2022-12-03T08:53:45.895Z,79.41
2022-12-03T08:56:24.045Z,79.97
2022-12-03T08:58:57.222Z,80.07
2022-12-03T09:01:40.434Z,81.06
2022-12-03T09:04:28.914Z,80.84
2022-12-03T09:06:58.439Z,80.68
2022-12-03T09:09:27.423Z,79.98
2022-12-03T09:11:56.384Z,80.42
2022-12-03T09:14:26.133Z,79.51
2022-12-03T09:16:55.846Z,79.13
2022-12-03T09:19:25.348Z,78.95
2022-12-03T09:21:53.920Z,78.70
2022-12-03T09:24:22.804Z,79.52
2022-12-03T09:26:51.422Z,79.59
2022-12-03T09:29:19.703Z,80.36
2022-12-03T09:31:49.315Z,81.19
2022-12-03T09:34:17.738Z,82.09
2022-12-03T09:36:46.007Z,82.99
2022-12-03T09:39:14.317Z,82.38
2022-12-03T09:41:44.144Z,82.98
2022-12-03T09:44:17.552Z,82.66
2022-12-03T09:46:49.371Z,83.01
2022-12-03T09:49:19.768Z,83.11
2022-12-03T09:51:48.398Z,83.49
2022-12-03T09:54:24.936Z,84.21
2022-12-03T09:56:54.854Z,83.72
2022-12-03T09:59:24.770Z,82.93
2022-12-03T10:01:55.494Z,83.23
2022-12-03T10:04:23.975Z,84.33
2022-12-03T10:06:52.963Z,84.27
2022-12-03T10:09:30.300Z,84.66
2022-12-03T10:12:00.305Z,83.63
2022-12-03T10:14:29.314Z,84.19
2022-12-03T10:16:59.908Z,83.90
2022-12-03T10:19:32.598Z,84.53
2022-12-03T10:22:01.107Z,85.03
2022-12-03T10:24:31.548Z,84.37
2022-12-03T10:27:01.655Z,85.08
2022-12-03T10:29:34.394Z,85.70
2022-12-03T10:32:07.177Z,86.15
2022-12-03T10:34:38.120Z,86.21
2022-12-03T10:37:16.325Z,87.13
2022-12-03T10:39:59.994Z,87.34
2022-12-03T10:42:30.519Z,87.46
2022-12-03T10:45:10.362Z,87.69
2022-12-03T10:47:40.164Z,87.85
2022-12-03T10:50:18.535Z,88.28
2022-12-03T10:52:47.935Z,88.23
2022-12-03T10:55:17.349Z,87.43
2022-12-03T10:57:47.055Z,87.61
2022-12-03T11:00:19.513Z,86.98
2022-12-03T11:02:54.828Z,85.87
2022-12-03T11:05:28.060Z,85.31
2022-12-03T11:07:57.458Z,85.51
2022-12-03T11:10:26.285Z,85.31
2022-12-03T11:13:46.455Z,85.61
2022-12-03T11:16:16.076Z,84.61
2022-12-03T11:19:03.530Z,85.48
2022-12-03T11:21:32.325Z,86.23
2022-12-03T11:24:20.547Z,86.95
2022-12-03T11:27:20.629Z,86.79
2022-12-03T11:29:56.067Z,86.82
2022-12-03T11:33:21.158Z,86.62
2022-12-03T11:36:15.463Z,86.33
2022-12-03T11:38:56.394Z,86.55
2022-12-03T11:41:31.911Z,86.78
2022-12-03T11:44:33.690Z,86.23
2022-12-03T11:47:15.729Z,86.37
2022-12-03T11:49:49.137Z,86.44
2022-12-03T11:52:27.658Z,85.35
2022-12-03T11:55:02.253Z,85.71
2022-12-03T11:57:37.830Z,85.55
2022-12-03T12:00:22.973Z,86.05
2022-12-03T12:02:52.952Z,86.34
2022-12-03T12:05:26.476Z,85.99
2022-12-03T12:07:57.031Z,85.41
2022-12-03T12:10:45.131Z,85.50
2022-12-03T12:13:49.942Z,86.37
2022-12-03T12:16:45.977Z,86.51
2022-12-03T12:19:39.958Z,86.93
2022-12-03T12:22:36.696Z,87.86
2022-12-03T12:25:36.080Z,86.58
2022-12-03T12:28:04.469Z,87.24
2022-12-03T12:30:32.632Z,87.17
2022-12-03T12:33:13.012Z,86.66
2022-12-03T12:35:42.875Z,86.69
2022-12-03T12:38:21.937Z,85.78
2022-12-03T12:40:52.182Z,85.79
2022-12-03T12:43:25.006Z,84.77
2022-12-03T12:45:55.570Z,84.74
2022-12-03T12:48:27.424Z,84.11
2022-12-03T12:51:02.186Z,82.81
2022-12-03T12:53:33.822Z,81.47
2022-12-03T12:56:14.440Z,81.51
2022-12-03T12:58:42.831Z,82.06
2022-12-03T13:01:21.560Z,83.12
2022-12-03T13:03:53.233Z,82.85
2022-12-03T13:06:27.585Z,82.29
2022-12-03T13:08:56.173Z,82.29
2022-12-03T13:11:39.511Z,82.18
2022-12-03T13:14:17.185Z,82.07
2022-12-03T13:16:46.210Z,82.26
2022-12-03T13:19:26.493Z,82.32
2022-12-03T13:21:56.234Z,82.93
2022-12-03T13:24:33.240Z,82.63
2022-12-03T13:27:22.947Z,83.17
2022-12-03T13:29:56.697Z,83.60
2022-12-03T13:32:30.943Z,83.30
2022-12-03T13:35:05.557Z,83.59
2022-12-03T13:37:34.039Z,83.15
2022-12-03T13:40:21.202Z,82.67
2022-12-03T13:42:52.525Z,85.85
2022-12-03T13:45:42.015Z,87.74
2022-12-03T13:48:21.058Z,88.42
2022-12-03T13:50:49.600Z,88.76
2022-12-03T13:53:23.441Z,88.63
2022-12-03T13:55:55.277Z,87.82
2022-12-03T13:58:24.847Z,87.69
2022-12-03T14:00:53.207Z,87.00
2022-12-03T14:03:23.376Z,87.25
2022-12-03T14:05:51.653Z,86.39
2022-12-03T14:08:20.187Z,87.05
2022-12-03T14:10:48.563Z,86.22
2022-12-03T14:13:16.799Z,85.89
2022-12-03T14:15:46.392Z,83.91
2022-12-03T14:18:14.670Z,82.90
2022-12-03T14:20:42.897Z,82.08
2022-12-03T14:23:11.233Z,81.58
2022-12-03T14:25:39.483Z,81.84
2022-12-03T14:28:09.518Z,81.81
2022-12-03T14:30:37.837Z,81.26
2022-12-03T14:33:07.453Z,81.59
2022-12-03T14:35:37.158Z,81.63
2022-12-03T14:38:05.416Z,81.30
2022-12-03T14:40:33.695Z,81.04
2022-12-03T14:43:01.917Z,81.42
2022-12-03T14:45:30.593Z,82.06
2022-12-03T14:47:58.906Z,82.60
2022-12-03T14:50:28.517Z,83.53
2022-12-03T14:52:56.836Z,82.60
2022-12-03T14:55:25.184Z,82.49
2022-12-03T14:57:53.402Z,82.37
2022-12-03T15:00:23.777Z,82.62
2022-12-03T15:02:52.209Z,82.94
2022-12-03T15:05:28.034Z,82.07
2022-12-03T15:07:58.330Z,81.13
2022-12-03T15:10:26.543Z,80.71
2022-12-03T15:12:54.739Z,80.35
2022-12-03T15:15:22.987Z,80.05
2022-12-03T15:17:51.169Z,80.00
2022-12-03T15:20:19.939Z,79.69
2022-12-03T15:22:48.215Z,79.72
2022-12-03T15:25:24.225Z,79.24
2022-12-03T15:27:52.548Z,79.34
2022-12-03T15:30:21.357Z,79.15
2022-12-03T15:32:49.614Z,79.42
2022-12-03T15:35:18.619Z,79.65
2022-12-03T15:37:47.090Z,79.45
2022-12-03T15:40:17.173Z,79.38
2022-12-03T15:42:45.456Z,80.45
2022-12-03T15:45:15.446Z,80.73
2022-12-03T15:47:44.010Z,80.62
2022-12-03T15:50:13.469Z,80.55
2022-12-03T15:52:41.931Z,80.95
2022-12-03T15:55:11.165Z,80.58
2022-12-03T15:57:40.816Z,80.80
2022-12-03T16:00:12.573Z,80.60
2022-12-03T16:02:40.939Z,81.08
2022-12-03T16:05:12.928Z,81.01
2022-12-03T16:07:41.412Z,80.47
2022-12-03T16:10:12.217Z,80.50
2022-12-03T16:12:41.842Z,80.23
2022-12-03T16:15:10.915Z,81.02
2022-12-03T16:17:39.157Z,82.14
2022-12-03T16:20:09.294Z,81.24
2022-12-03T16:22:37.496Z,81.39
2022-12-03T16:25:07.168Z,80.97
2022-12-03T16:27:37.036Z,80.96
2022-12-03T16:30:09.402Z,81.00
2022-12-03T16:32:37.699Z,80.65
2022-12-03T16:35:06.806Z,80.41
2022-12-03T16:37:35.093Z,80.49
2022-12-03T16:40:03.410Z,80.34
2022-12-03T16:42:31.693Z,80.43
2022-12-03T16:45:22.861Z,79.87
2022-12-03T16:47:52.461Z,79.54
2022-12-03T16:50:27.587Z,79.40
2022-12-03T16:52:57.965Z,79.57
2022-12-03T16:55:26.456Z,79.35
2022-12-03T16:57:54.755Z,79.20
2022-12-03T17:00:23.229Z,79.72
2022-12-03T17:02:52.953Z,79.74
2022-12-03T17:05:21.422Z,80.57
2022-12-03T17:07:49.749Z,81.84
2022-12-03T17:10:18.275Z,81.47
2022-12-03T17:13:10.063Z,83.15
2022-12-03T17:15:35.046Z,83.65
2022-12-03T17:18:05.251Z,83.34
2022-12-03T17:20:34.549Z,83.44
2022-12-03T17:23:03.434Z,84.01
2022-12-03T17:25:32.067Z,83.70
2022-12-03T17:28:00.352Z,83.71
2022-12-03T17:30:28.653Z,82.92
2022-12-03T17:32:57.817Z,82.91
2022-12-03T17:35:28.518Z,83.48
2022-12-03T17:37:56.935Z,82.89
2022-12-03T17:40:25.163Z,82.02
2022-12-03T17:42:53.441Z,82.41
2022-12-03T17:45:21.657Z,82.18
2022-12-03T17:47:49.884Z,81.61
2022-12-03T17:50:18.181Z,81.85
2022-12-03T17:52:47.762Z,81.13
2022-12-03T17:55:26.123Z,80.85
2022-12-03T17:57:56.278Z,80.38
2022-12-03T18:00:24.782Z,80.27
2022-12-03T18:02:53.055Z,80.61
2022-12-03T18:05:22.974Z,81.22
2022-12-03T18:07:53.070Z,82.29
2022-12-03T18:10:21.355Z,81.65
2022-12-03T18:12:49.787Z,80.59
2022-12-03T18:15:18.630Z,80.41
2022-12-03T18:17:49.829Z,79.71
2022-12-03T18:20:18.475Z,79.50
2022-12-03T18:22:46.739Z,79.42
2022-12-03T18:25:18.006Z,79.06
2022-12-03T18:27:47.600Z,78.74
2022-12-03T18:30:16.320Z,79.12
2022-12-03T18:32:44.613Z,79.30
2022-12-03T18:35:13.041Z,79.52
2022-12-03T18:37:41.472Z,78.93
2022-12-03T18:40:20.096Z,79.63
2022-12-03T18:42:48.653Z,79.96
2022-12-03T18:45:17.352Z,80.15
2022-12-03T18:47:46.410Z,79.95
2022-12-03T18:50:14.883Z,79.94
2022-12-03T18:52:43.241Z,79.84
2022-12-03T18:55:19.661Z,79.11
2022-12-03T18:57:47.923Z,79.94
2022-12-03T19:00:17.514Z,80.18
2022-12-03T19:05:35.737Z,79.92
2022-12-03T19:08:12.484Z,79.94
2022-12-03T19:10:43.470Z,80.29
2022-12-03T19:13:12.079Z,79.98
2022-12-03T19:15:41.098Z,80.81
2022-12-03T19:18:09.487Z,82.06
2022-12-03T19:20:41.830Z,82.00
2022-12-03T19:23:10.823Z,82.36
2022-12-03T19:25:39.095Z,83.26
2022-12-03T19:28:09.334Z,84.73
2022-12-03T19:30:37.608Z,83.50
2022-12-03T19:33:05.889Z,83.91
2022-12-03T19:35:40.128Z,83.48
2022-12-03T19:38:08.457Z,83.81
2022-12-03T19:40:36.782Z,85.32
2022-12-03T19:43:05.102Z,85.63
2022-12-03T19:45:41.592Z,85.01
2022-12-03T19:48:09.913Z,85.10
2022-12-03T19:50:38.163Z,85.93
2022-12-03T19:53:06.475Z,85.88
2022-12-03T19:55:36.725Z,86.73
2022-12-03T19:58:04.999Z,86.86
2022-12-03T20:00:35.648Z,86.66
2022-12-03T20:03:04.393Z,87.04
2022-12-03T20:05:37.965Z,86.83
2022-12-03T20:08:08.977Z,86.55
2022-12-03T20:10:37.644Z,85.74
2022-12-03T20:13:06.260Z,86.33
2022-12-03T20:15:37.829Z,85.85
2022-12-03T20:18:06.371Z,84.81
2022-12-03T20:20:34.623Z,84.91
2022-12-03T20:23:04.351Z,84.12
2022-12-03T20:25:32.684Z,84.14
2022-12-03T20:28:00.898Z,84.39
2022-12-03T20:30:29.243Z,84.36
2022-12-03T20:32:58.811Z,84.94
2022-12-03T20:35:27.140Z,84.84
2022-12-03T20:37:55.364Z,84.07
2022-12-03T20:40:23.625Z,84.22
2022-12-03T20:42:52.606Z,84.20
2022-12-03T20:45:20.961Z,83.68
2022-12-03T20:47:49.895Z,83.12
2022-12-03T20:50:19.727Z,82.51
2022-12-03T20:53:09.336Z,82.22
2022-12-03T20:55:36.235Z,81.76
2022-12-03T20:58:04.923Z,81.89
2022-12-03T21:00:33.305Z,81.12
2022-12-03T21:03:01.566Z,81.59
2022-12-03T21:05:31.294Z,80.99
2022-12-03T21:07:59.567Z,81.53
2022-12-03T21:10:36.957Z,81.21
2022-12-03T21:13:05.229Z,81.02
2022-12-03T21:15:33.432Z,80.41
2022-12-03T21:18:01.788Z,79.92
2022-12-03T21:20:31.418Z,79.87
2022-12-03T21:22:59.689Z,79.71
2022-12-03T21:25:28.040Z,79.66
2022-12-03T21:27:56.365Z,80.03
2022-12-03T21:30:24.648Z,79.63
2022-12-03T21:32:52.984Z,79.44
2022-12-03T21:35:21.165Z,79.43
2022-12-03T21:37:51.637Z,79.49
2022-12-03T21:40:19.971Z,80.08
2022-12-03T21:42:48.545Z,80.81
2022-12-03T21:45:17.311Z,81.04
2022-12-03T21:47:49.291Z,80.95
2022-12-03T21:50:17.946Z,80.68
2022-12-03T21:52:46.153Z,80.17
2022-12-03T21:55:15.920Z,79.89
2022-12-03T21:57:44.339Z,79.77
2022-12-03T22:00:14.483Z,79.56
2022-12-03T22:02:42.781Z,79.39
2022-12-03T22:05:12.746Z,78.95
2022-12-03T22:07:41.635Z,78.98
2022-12-03T22:10:12.594Z,78.99
2022-12-03T22:12:42.288Z,79.08
2022-12-03T22:15:18.189Z,79.18
2022-12-03T22:17:47.442Z,79.10
2022-12-03T22:20:16.266Z,78.87
2022-12-03T22:22:44.536Z,78.57
2022-12-03T22:25:12.824Z,78.42
2022-12-03T22:27:42.496Z,78.79
2022-12-03T22:30:11.477Z,78.40
2022-12-03T22:32:39.776Z,78.14
2022-12-03T22:35:09.166Z,77.73
2022-12-03T22:37:37.387Z,78.08
2022-12-03T22:40:07.087Z,77.91
2022-12-03T22:42:35.345Z,77.52
2022-12-03T22:45:06.020Z,77.82
2022-12-03T22:47:34.272Z,77.87
2022-12-03T22:50:02.534Z,78.12
2022-12-03T22:52:31.671Z,78.11
2022-12-03T22:54:59.892Z,79.18
2022-12-03T22:57:28.193Z,79.26
2022-12-03T22:59:56.729Z,79.42
2022-12-03T23:02:26.621Z,78.95
2022-12-03T23:04:56.721Z,78.85
2022-12-03T23:07:24.991Z,78.72
2022-12-03T23:09:53.580Z,78.95
2022-12-03T23:12:22.317Z,78.56
2022-12-03T23:14:55.140Z,78.31
2022-12-03T23:17:23.439Z,78.45
2022-12-03T23:19:53.511Z,77.80
2022-12-03T23:22:22.003Z,77.66
2022-12-03T23:24:50.232Z,77.93
2022-12-03T23:27:18.453Z,78.15
2022-12-03T23:29:46.663Z,78.01
2022-12-03T23:32:14.932Z,77.76
2022-12-03T23:34:43.211Z,77.83
2022-12-03T23:37:12.958Z,77.35
2022-12-03T23:39:41.488Z,77.53
2022-12-03T23:42:09.738Z,77.71
2022-12-03T23:44:37.993Z,79.07
2022-12-03T23:47:06.392Z,79.47
2022-12-03T23:49:34.775Z,79.28
2022-12-03T23:52:03.061Z,79.31
2022-12-03T23:54:32.716Z,80.36
2022-12-03T23:57:00.958Z,80.85
2022-12-03T23:59:29.264Z,80.37
